createdAt,value
2022-10-05T00:02:24.228Z,15.45
2022-10-05T00:04:56.496Z,17.98
2022-10-05T00:07:24.655Z,15.70
2022-10-05T00:09:58.172Z,19.20
2022-10-05T00:12:26.616Z,16.05
2022-10-05T00:14:57.933Z,15.73
2022-10-05T00:17:28.015Z,18.27
2022-10-05T00:19:55.183Z,19.55
2022-10-05T00:22:30.823Z,15.10
2022-10-05T00:25:02.452Z,18.95
2022-10-05T00:27:36.810Z,20.27
2022-10-05T00:30:17.079Z,17.98
2022-10-05T00:32:44.507Z,15.63
2022-10-05T00:35:12.903Z,15.70
2022-10-05T00:37:40.111Z,14.55
2022-10-05T00:40:26.983Z,14.20
2022-10-05T00:43:18.439Z,16.10
2022-10-05T00:46:00.087Z,16.73
2022-10-05T00:48:51.079Z,16.35
2022-10-05T00:51:27.318Z,12.82
2022-10-05T00:53:59.660Z,14.07
2022-10-05T00:56:35.179Z,11.90
2022-10-05T00:59:16.332Z,16.15
2022-10-05T01:02:06.890Z,15.18
2022-10-05T01:04:54.501Z,17.38
2022-10-05T01:07:44.606Z,18.42
2022-10-05T01:10:23.472Z,14.15
2022-10-05T01:13:05.528Z,17.23
2022-10-05T01:16:03.935Z,15.68
2022-10-05T01:19:29.137Z,19.02
2022-10-05T01:22:15.907Z,22.15
2022-10-05T01:24:54.639Z,19.10
2022-10-05T01:27:40.248Z,16.77
2022-10-05T01:30:13.634Z,14.25
2022-10-05T01:33:05.020Z,20.70
2022-10-05T01:35:55.069Z,19.35
2022-10-05T01:38:49.005Z,18.38
2022-10-05T01:41:45.834Z,17.98
2022-10-05T01:44:17.662Z,13.88
2022-10-05T01:47:00.022Z,17.77
2022-10-05T01:49:38.785Z,14.02
2022-10-05T01:52:39.569Z,15.23
2022-10-05T01:55:18.640Z,16.73
2022-10-05T01:58:07.021Z,14.98
2022-10-05T02:00:45.378Z,20.67
2022-10-05T02:03:19.178Z,11.40
2022-10-05T02:08:37.006Z,13.65
2022-10-05T02:11:10.131Z,15.73
2022-10-05T02:13:41.465Z,17.58
2022-10-05T02:16:17.091Z,23.30
2022-10-05T02:18:59.739Z,18.55
2022-10-05T02:21:27.487Z,17.95
2022-10-05T02:23:58.127Z,17.67
2022-10-05T02:26:26.204Z,13.32
2022-10-05T02:28:57.934Z,19.95
2022-10-05T02:31:31.301Z,14.48
2022-10-05T02:34:40.036Z,16.65
2022-10-05T02:37:28.374Z,19.60
2022-10-05T02:40:45.593Z,16.55
2022-10-05T02:43:18.015Z,18.50
2022-10-05T02:45:50.372Z,15.27
2022-10-05T02:48:25.791Z,16.83
2022-10-05T02:51:15.434Z,17.05
2022-10-05T02:53:44.918Z,18.55
2022-10-05T02:56:20.615Z,15.27
2022-10-05T02:59:12.525Z,24.73
2022-10-05T03:02:12.518Z,19.00
2022-10-05T03:04:53.108Z,14.70
2022-10-05T03:07:37.933Z,19.08
2022-10-05T03:10:26.903Z,24.55
2022-10-05T03:13:05.178Z,21.13
2022-10-05T03:15:37.819Z,19.90
2022-10-05T03:18:07.440Z,20.55
2022-10-05T03:20:46.844Z,18.40
2022-10-05T03:23:25.214Z,24.38
2022-10-05T03:26:06.226Z,23.42
2022-10-05T03:29:01.247Z,17.23
2022-10-05T03:31:40.653Z,20.85
2022-10-05T03:34:20.420Z,13.75
2022-10-05T03:36:58.626Z,16.48
2022-10-05T03:39:54.762Z,15.88
2022-10-05T03:42:37.859Z,15.05
2022-10-05T03:45:26.967Z,15.32
2022-10-05T03:48:11.521Z,17.27
2022-10-05T03:51:02.591Z,15.85
2022-10-05T03:53:33.975Z,15.38
2022-10-05T03:56:25.373Z,15.93
2022-10-05T03:59:00.999Z,20.58
2022-10-05T04:01:48.522Z,14.95
2022-10-05T04:04:24.243Z,16.77
2022-10-05T04:06:53.229Z,18.33
2022-10-05T04:09:39.624Z,14.55
2022-10-05T04:12:24.867Z,16.20
2022-10-05T04:14:57.513Z,15.95
2022-10-05T04:17:35.754Z,13.98
2022-10-05T04:20:17.405Z,15.68
2022-10-05T04:23:12.835Z,17.90
2022-10-05T04:25:50.869Z,18.02
2022-10-05T04:28:32.015Z,15.00
2022-10-05T04:31:02.808Z,18.60
2022-10-05T04:33:29.404Z,13.45
2022-10-05T04:36:24.342Z,21.33
2022-10-05T04:39:09.314Z,20.92
2022-10-05T04:41:59.038Z,18.55
2022-10-05T04:45:20.033Z,16.27
2022-10-05T04:48:12.729Z,20.65
2022-10-05T04:50:50.600Z,28.45
2022-10-05T04:53:37.185Z,25.73
2022-10-05T04:56:11.883Z,23.33
2022-10-05T04:58:59.704Z,17.55
2022-10-05T05:01:48.239Z,20.35
2022-10-05T05:04:28.474Z,23.60
2022-10-05T05:07:07.435Z,24.55
2022-10-05T05:10:11.121Z,29.38
2022-10-05T05:12:59.603Z,24.30
2022-10-05T05:15:41.010Z,27.90
2022-10-05T05:18:42.054Z,29.85
2022-10-05T05:21:38.417Z,29.35
2022-10-05T05:24:17.140Z,35.00
2022-10-05T05:26:58.971Z,33.80
2022-10-05T05:29:42.868Z,30.40
2022-10-05T05:32:36.216Z,31.27
2022-10-05T05:35:02.706Z,28.35
2022-10-05T05:37:47.028Z,36.13
2022-10-05T05:40:18.114Z,39.65
2022-10-05T05:43:12.617Z,35.22
2022-10-05T05:48:30.615Z,41.50
2022-10-05T05:51:03.334Z,42.80
2022-10-05T05:53:37.127Z,46.20
2022-10-05T05:58:42.865Z,49.17
2022-10-05T06:01:32.867Z,48.83
2022-10-05T06:04:09.741Z,47.53
2022-10-05T06:06:41.179Z,55.70
2022-10-05T06:09:22.326Z,49.90
2022-10-05T06:11:58.898Z,42.00
2022-10-05T06:14:34.461Z,39.78
2022-10-05T06:17:07.504Z,26.27
2022-10-05T06:19:37.408Z,21.48
2022-10-05T06:22:24.833Z,20.23
2022-10-05T06:24:57.500Z,20.25
2022-10-05T06:27:34.549Z,23.08
2022-10-05T06:30:11.592Z,22.85
2022-10-05T06:32:50.252Z,18.08
2022-10-05T06:35:39.501Z,22.83
2022-10-05T06:38:17.843Z,21.67
2022-10-05T06:41:02.778Z,18.60
2022-10-05T06:43:43.512Z,18.98
2022-10-05T06:46:23.702Z,12.43
2022-10-05T06:49:05.167Z,15.57
2022-10-05T06:51:36.827Z,15.88
2022-10-05T06:54:25.119Z,17.00
2022-10-05T06:56:58.394Z,16.45
2022-10-05T06:59:53.608Z,14.82
2022-10-05T07:02:56.096Z,14.77
2022-10-05T07:05:42.883Z,14.48
2022-10-05T07:08:20.358Z,14.45
2022-10-05T07:11:17.963Z,19.50
2022-10-05T07:14:03.240Z,15.23
2022-10-05T07:16:56.255Z,13.77
2022-10-05T07:19:57.953Z,14.13
2022-10-05T07:22:49.259Z,16.73
2022-10-05T07:25:37.139Z,15.07
2022-10-05T07:28:13.849Z,18.60
2022-10-05T07:30:54.970Z,17.92
2022-10-05T07:33:33.249Z,14.93
2022-10-05T07:36:35.071Z,15.63
2022-10-05T07:39:08.301Z,16.10
2022-10-05T07:41:47.840Z,16.70
2022-10-05T07:44:33.615Z,17.45
2022-10-05T07:47:25.103Z,16.60
2022-10-05T07:50:02.513Z,16.25
2022-10-05T07:52:32.400Z,13.75
2022-10-05T07:55:04.212Z,13.60
2022-10-05T07:57:48.913Z,12.02
2022-10-05T08:00:21.106Z,19.65
2022-10-05T08:02:58.379Z,14.73
2022-10-05T08:05:38.324Z,15.05
2022-10-05T08:08:12.335Z,15.98
2022-10-05T08:11:05.140Z,18.60
2022-10-05T08:13:42.006Z,12.90
2022-10-05T08:16:16.821Z,15.05
2022-10-05T08:18:57.042Z,14.38
2022-10-05T08:21:31.493Z,13.38
2022-10-05T08:24:13.248Z,12.52
2022-10-05T08:27:01.259Z,14.45
2022-10-05T08:29:55.775Z,16.00
2022-10-05T08:32:50.475Z,17.30
2022-10-05T08:35:34.906Z,14.05
2022-10-05T08:38:16.847Z,11.35
2022-10-05T08:41:02.264Z,14.57
2022-10-05T08:44:00.723Z,19.13
2022-10-05T08:46:59.674Z,16.27
2022-10-05T08:49:56.909Z,8.32
2022-10-05T08:52:23.564Z,12.48
2022-10-05T08:55:25.146Z,16.63
2022-10-05T08:58:18.645Z,12.23
2022-10-05T09:01:06.834Z,9.35
2022-10-05T09:03:58.119Z,12.65
2022-10-05T09:06:30.625Z,14.43
2022-10-05T09:09:08.755Z,12.93
2022-10-05T09:11:44.802Z,10.38
2022-10-05T09:14:18.965Z,12.63
2022-10-05T09:16:52.425Z,12.63
2022-10-05T09:19:49.419Z,9.55
2022-10-05T09:22:43.879Z,12.13
2022-10-05T09:25:39.732Z,17.15
2022-10-05T09:28:25.277Z,11.30
2022-10-05T09:31:49.899Z,13.13
2022-10-05T09:34:30.602Z,10.27
2022-10-05T09:40:45.390Z,8.07
2022-10-05T09:43:27.068Z,9.82
2022-10-05T09:46:14.113Z,8.90
2022-10-05T09:48:40.905Z,10.43
2022-10-05T09:51:25.939Z,8.55
2022-10-05T09:54:04.728Z,9.43
2022-10-05T09:56:31.636Z,7.82
2022-10-05T09:59:07.653Z,8.55
2022-10-05T10:01:49.250Z,8.70
2022-10-05T10:04:22.539Z,7.25
2022-10-05T10:07:05.291Z,8.90
2022-10-05T10:09:38.880Z,8.05
2022-10-05T10:14:50.394Z,6.63
2022-10-05T10:17:26.932Z,9.48
2022-10-05T10:20:06.871Z,4.90
2022-10-05T10:22:33.587Z,7.50
2022-10-05T10:25:16.709Z,10.30
2022-10-05T10:27:50.283Z,7.50
2022-10-05T10:30:19.242Z,6.63
2022-10-05T10:33:11.747Z,6.28
2022-10-05T10:35:40.717Z,6.13
2022-10-05T10:38:16.852Z,8.65
2022-10-05T10:40:49.593Z,7.03
2022-10-05T10:43:42.320Z,4.50
2022-10-05T10:46:27.620Z,6.03
2022-10-05T10:49:03.718Z,6.45
2022-10-05T10:51:30.321Z,5.35
2022-10-05T10:54:09.096Z,4.22
2022-10-05T10:56:38.766Z,5.90
2022-10-05T10:59:26.693Z,6.15
2022-10-05T11:02:22.411Z,5.03
2022-10-05T11:05:00.692Z,6.00
2022-10-05T11:07:30.578Z,4.68
2022-10-05T11:10:03.579Z,8.60
2022-10-05T11:12:43.344Z,4.38
2022-10-05T11:15:28.677Z,5.78
2022-10-05T11:18:13.662Z,3.20
2022-10-05T11:20:52.403Z,6.65
2022-10-05T11:23:29.903Z,4.38
2022-10-05T11:26:01.628Z,4.82
2022-10-05T11:28:37.916Z,5.63
2022-10-05T11:31:27.626Z,4.50
2022-10-05T11:34:10.178Z,6.43
2022-10-05T11:36:46.650Z,5.25
2022-10-05T11:39:30.710Z,7.85
2022-10-05T11:41:57.155Z,8.20
2022-10-05T11:44:46.774Z,4.35
2022-10-05T11:47:19.643Z,5.38
2022-10-05T11:49:52.442Z,5.43
2022-10-05T11:52:18.988Z,6.93
2022-10-05T11:55:15.175Z,5.95
2022-10-05T11:57:50.617Z,6.72
2022-10-05T12:00:19.302Z,5.40
2022-10-05T12:03:04.670Z,6.57
2022-10-05T12:05:51.630Z,3.97
2022-10-05T12:08:37.083Z,4.70
2022-10-05T12:11:22.340Z,8.13
2022-10-05T12:13:57.487Z,7.32
2022-10-05T12:16:28.469Z,5.28
2022-10-05T12:19:15.230Z,12.52
2022-10-05T12:21:47.400Z,6.70
2022-10-05T12:24:46.456Z,8.45
2022-10-05T12:27:20.664Z,6.50
2022-10-05T12:30:00.232Z,6.30
2022-10-05T12:32:34.210Z,4.88
2022-10-05T12:35:43.782Z,4.90
2022-10-05T12:38:23.195Z,5.07
2022-10-05T12:40:52.777Z,5.32
2022-10-05T12:43:24.756Z,4.47
2022-10-05T12:46:01.153Z,6.43
2022-10-05T12:48:27.681Z,5.25
2022-10-05T12:51:00.860Z,5.32
2022-10-05T12:53:36.307Z,4.60
2022-10-05T12:56:22.705Z,5.22
2022-10-05T12:59:11.873Z,6.10
2022-10-05T13:01:41.644Z,5.60
2022-10-05T13:04:23.669Z,5.35
2022-10-05T13:06:50.236Z,8.38
2022-10-05T13:09:25.712Z,5.78
2022-10-05T13:11:54.278Z,6.72
2022-10-05T13:14:39.417Z,8.23
2022-10-05T13:17:29.024Z,6.32
2022-10-05T13:20:03.798Z,5.57
2022-10-05T13:22:34.457Z,6.78
2022-10-05T13:25:21.303Z,6.40
2022-10-05T13:27:47.825Z,5.10
2022-10-05T13:30:18.956Z,7.82
2022-10-05T13:32:58.950Z,8.60
2022-10-05T13:35:43.005Z,5.97
2022-10-05T13:38:12.380Z,6.70
2022-10-05T13:40:39.347Z,3.78
2022-10-05T13:43:24.740Z,5.72
2022-10-05T13:46:09.395Z,7.35
2022-10-05T13:49:02.282Z,3.95
2022-10-05T13:52:08.606Z,4.75
2022-10-05T13:54:43.489Z,11.18
2022-10-05T13:57:10.022Z,6.55
2022-10-05T13:59:41.474Z,4.53
2022-10-05T14:02:12.937Z,6.75
2022-10-05T14:04:48.053Z,7.95
2022-10-05T14:07:25.421Z,8.10
2022-10-05T14:09:52.187Z,7.13
2022-10-05T14:12:20.319Z,5.40
2022-10-05T14:14:48.718Z,7.35
2022-10-05T14:17:16.996Z,10.85
2022-10-05T14:19:47.505Z,6.75
2022-10-05T14:22:22.592Z,7.25
2022-10-05T14:24:54.753Z,5.55
2022-10-05T14:27:23.980Z,5.78
2022-10-05T14:29:58.745Z,6.68
2022-10-05T14:32:27.214Z,9.07
2022-10-05T14:35:05.348Z,7.90
2022-10-05T14:37:33.050Z,7.47
2022-10-05T14:40:19.604Z,5.93
2022-10-05T14:42:47.453Z,7.80
2022-10-05T14:45:18.525Z,5.80
2022-10-05T14:47:47.901Z,9.45
2022-10-05T14:50:21.249Z,8.05
2022-10-05T14:53:00.838Z,15.32
2022-10-05T14:55:34.900Z,13.23
2022-10-05T14:58:10.888Z,9.07
2022-10-05T15:00:46.769Z,16.52
2022-10-05T15:03:20.740Z,17.42
2022-10-05T15:05:59.207Z,14.27
2022-10-05T15:08:33.912Z,17.33
2022-10-05T15:11:06.527Z,29.40
2022-10-05T15:13:36.455Z,23.80
2022-10-05T15:16:14.513Z,14.43
2022-10-05T15:19:05.311Z,13.10
2022-10-05T15:21:42.542Z,14.18
2022-10-05T15:24:14.820Z,11.60
2022-10-05T15:26:47.723Z,15.10
2022-10-05T15:29:32.751Z,11.57
2022-10-05T15:32:14.692Z,14.25
2022-10-05T15:34:44.764Z,14.52
2022-10-05T15:37:16.350Z,11.98
2022-10-05T15:40:06.203Z,32.42
2022-10-05T15:42:45.805Z,48.40
2022-10-05T15:45:21.357Z,27.10
2022-10-05T15:48:20.463Z,41.50
2022-10-05T15:50:55.990Z,28.73
2022-10-05T15:53:32.081Z,30.08
2022-10-05T15:56:19.386Z,25.40
2022-10-05T15:58:46.040Z,21.83
2022-10-05T16:01:16.315Z,30.15
2022-10-05T16:10:57.555Z,84.03
2022-10-05T16:13:43.478Z,199.15
2022-10-05T16:16:38.483Z,125.68
2022-10-05T16:19:13.416Z,282.58
2022-10-05T16:22:15.673Z,167.00
2022-10-05T16:24:54.333Z,256.25
2022-10-05T16:27:26.910Z,58.13
2022-10-05T16:30:04.639Z,101.95
2022-10-05T16:32:38.348Z,133.95
2022-10-05T16:37:50.200Z,108.45
2022-10-05T16:40:29.997Z,212.85
2022-10-05T16:42:59.380Z,179.48
2022-10-05T16:45:28.876Z,108.80
2022-10-05T16:48:22.180Z,60.45
2022-10-05T16:51:07.743Z,81.05
2022-10-05T16:53:39.433Z,63.92
2022-10-05T16:56:18.095Z,71.88
2022-10-05T16:59:09.608Z,77.63
2022-10-05T17:01:57.877Z,51.40
2022-10-05T17:04:52.403Z,13.70
2022-10-05T17:07:47.789Z,51.45
2022-10-05T17:10:37.874Z,14.75
2022-10-05T17:13:37.432Z,18.60
2022-10-05T17:16:13.592Z,23.42
2022-10-05T17:19:19.377Z,26.88
2022-10-05T17:21:50.159Z,17.48
2022-10-05T17:24:22.942Z,16.27
2022-10-05T17:27:03.168Z,19.87
2022-10-05T17:29:47.683Z,15.80
2022-10-05T17:32:16.924Z,13.95
2022-10-05T17:35:18.532Z,18.45
2022-10-05T17:38:14.482Z,21.73
2022-10-05T17:41:01.691Z,14.93
2022-10-05T17:43:33.242Z,13.27
2022-10-05T17:46:06.913Z,15.38
2022-10-05T17:48:38.294Z,15.95
2022-10-05T17:51:56.965Z,16.38
2022-10-05T17:54:49.589Z,14.80
2022-10-05T17:57:21.112Z,15.73
2022-10-05T17:59:58.497Z,19.70
2022-10-05T18:02:40.982Z,19.10
2022-10-05T18:05:15.254Z,14.23
2022-10-05T18:07:48.171Z,11.98
2022-10-05T18:10:29.278Z,14.80
2022-10-05T18:12:58.856Z,8.73
2022-10-05T18:15:25.434Z,12.45
2022-10-05T18:17:57.304Z,10.25
2022-10-05T18:20:31.967Z,12.55
2022-10-05T18:23:07.826Z,17.38
2022-10-05T18:25:43.505Z,9.60
2022-10-05T18:28:16.211Z,11.05
2022-10-05T18:30:59.105Z,11.03
2022-10-05T18:33:33.228Z,12.60
2022-10-05T18:36:37.718Z,12.18
2022-10-05T18:40:02.170Z,11.35
2022-10-05T18:42:53.256Z,12.50
2022-10-05T18:45:37.818Z,12.07
2022-10-05T18:48:30.080Z,13.38
2022-10-05T18:51:18.212Z,11.30
2022-10-05T18:53:47.545Z,10.35
2022-10-05T18:56:43.991Z,18.10
2022-10-05T18:59:26.413Z,15.82
2022-10-05T19:02:11.156Z,9.40
2022-10-05T19:04:44.314Z,9.95
2022-10-05T19:07:22.865Z,13.15
2022-10-05T19:10:11.158Z,13.52
2022-10-05T19:13:01.182Z,20.98
2022-10-05T19:15:52.502Z,25.42
2022-10-05T19:19:04.340Z,159.38
2022-10-05T19:21:51.197Z,104.90
2022-10-05T19:24:26.972Z,50.28
2022-10-05T19:27:27.344Z,47.35
2022-10-05T19:30:20.153Z,66.07
2022-10-05T19:33:07.966Z,86.28
2022-10-05T19:35:58.471Z,57.72
2022-10-05T19:38:44.678Z,57.90
2022-10-05T19:41:17.481Z,28.02
2022-10-05T19:44:15.381Z,28.73
2022-10-05T19:46:47.867Z,15.77
2022-10-05T19:49:47.878Z,17.67
2022-10-05T19:52:36.431Z,11.68
2022-10-05T19:55:26.438Z,12.68
2022-10-05T19:57:55.619Z,13.45
2022-10-05T20:00:26.697Z,13.30
2022-10-05T20:03:16.004Z,14.38
2022-10-05T20:05:42.939Z,13.88
2022-10-05T20:08:18.424Z,16.42
2022-10-05T20:11:03.244Z,25.10
2022-10-05T20:13:33.456Z,22.42
2022-10-05T20:16:36.344Z,15.40
2022-10-05T20:19:42.977Z,14.25
2022-10-05T20:22:24.683Z,27.00
2022-10-05T20:24:54.524Z,30.08
2022-10-05T20:27:43.747Z,25.45
2022-10-05T20:30:19.438Z,13.57
2022-10-05T20:32:50.647Z,21.38
2022-10-05T20:35:19.040Z,14.60
2022-10-05T20:37:45.611Z,20.65
2022-10-05T20:40:12.624Z,27.67
2022-10-05T20:42:39.301Z,35.45
2022-10-05T20:45:06.463Z,21.75
2022-10-05T20:47:33.841Z,22.88
2022-10-05T20:50:01.769Z,16.70
2022-10-05T20:52:28.297Z,13.75
2022-10-05T20:54:56.680Z,12.38
2022-10-05T20:57:24.342Z,14.55
2022-10-05T20:59:51.546Z,20.70
2022-10-05T21:02:21.072Z,34.42
2022-10-05T21:04:47.909Z,51.20
2022-10-05T21:07:16.535Z,14.15
2022-10-05T21:09:44.711Z,11.45
2022-10-05T21:12:11.424Z,12.27
2022-10-05T21:14:38.558Z,12.15
2022-10-05T21:17:06.348Z,15.48
2022-10-05T21:19:38.529Z,20.63
2022-10-05T21:22:07.603Z,16.88
2022-10-05T21:24:38.778Z,17.02
2022-10-05T21:27:05.988Z,15.50
2022-10-05T21:29:34.367Z,19.27
2022-10-05T21:32:01.364Z,14.35
2022-10-05T21:34:28.777Z,16.98
2022-10-05T21:36:55.731Z,14.73
2022-10-05T21:39:22.280Z,13.18
2022-10-05T21:41:49.833Z,15.02
2022-10-05T21:44:16.808Z,13.57
2022-10-05T21:46:44.228Z,11.68
2022-10-05T21:49:11.058Z,13.07
2022-10-05T21:51:39.215Z,12.57
2022-10-05T21:54:13.819Z,11.15
2022-10-05T21:56:44.285Z,13.93
2022-10-05T21:59:13.269Z,12.82
2022-10-05T22:01:39.905Z,17.27
2022-10-05T22:04:07.683Z,13.30
2022-10-05T22:06:35.850Z,19.70
2022-10-05T22:09:02.939Z,14.07
2022-10-05T22:11:29.706Z,12.85
2022-10-05T22:14:02.610Z,13.95
2022-10-05T22:16:32.934Z,17.15
2022-10-05T22:19:03.771Z,15.57
2022-10-05T22:21:30.615Z,14.65
2022-10-05T22:23:57.484Z,20.20
2022-10-05T22:26:24.820Z,18.50
2022-10-05T22:28:55.175Z,17.17
2022-10-05T22:31:22.172Z,14.00
2022-10-05T22:33:49.150Z,16.35
2022-10-05T22:36:16.067Z,13.52
2022-10-05T22:38:42.641Z,15.20
2022-10-05T22:41:13.578Z,13.77
2022-10-05T22:43:40.143Z,15.60
2022-10-05T22:46:12.246Z,17.08
2022-10-05T22:48:39.816Z,16.08
2022-10-05T22:51:07.613Z,15.32
2022-10-05T22:53:35.007Z,17.17
2022-10-05T22:56:06.283Z,17.50
2022-10-05T22:58:32.917Z,16.30
2022-10-05T23:01:07.887Z,15.35
2022-10-05T23:03:35.056Z,13.48
2022-10-05T23:06:07.387Z,17.30
2022-10-05T23:08:36.157Z,15.23
2022-10-05T23:11:07.741Z,14.82
2022-10-05T23:13:34.547Z,16.67
2022-10-05T23:16:22.394Z,13.25
2022-10-05T23:18:50.688Z,14.43
2022-10-05T23:21:19.006Z,13.63
2022-10-05T23:23:48.930Z,16.13
2022-10-05T23:26:16.232Z,13.63
2022-10-05T23:28:47.215Z,14.23
2022-10-05T23:31:16.546Z,12.23
2022-10-05T23:33:43.863Z,13.43
2022-10-05T23:36:19.185Z,13.60
2022-10-05T23:38:46.094Z,12.38
2022-10-05T23:41:13.961Z,15.02
2022-10-05T23:43:40.592Z,14.38
2022-10-05T23:46:08.149Z,13.00
2022-10-05T23:48:38.028Z,15.27
2022-10-05T23:51:10.205Z,19.08
2022-10-05T23:53:37.118Z,13.75
2022-10-05T23:56:04.776Z,15.93
2022-10-05T23:58:31.650Z,15.13
